RYR40NP EPMO-LIME
Flight info
| Callsign | RYR40NP |
|---|---|
| Flight time | 2h 17m |
| Altitude | 38000 |
| Route | EVINA N744 TUSIN DCT MIKOV DCT DETSA/N0453F390 DCT RENTA DCT ATPED/N0339F190 M984 LUSIL T772 EKLIB |
| Aircraft | B38M/M-SADE3FGILRWY/SB1 |
Departure
| Time | 2026-05-06 17:04 |
|---|---|
| Airport | Warsaw Modlin Airport (EPMO) |
Arrival
| Time | 2026-05-06 19:21 |
|---|---|
| Airport | Il Caravaggio International Airport (LIME) |
| Time | Latitude | Longitude | Altitude | Speed | Heading |
|---|---|---|---|---|---|
| 2026-05-06 15:55 | 52.44741 | 20.65182 | 340 ft | 0 kts | 206° |
| 2026-05-06 16:50 | 52.44752 | 20.65190 | 335 ft | 3 kts | 206° |
| 2026-05-06 16:50 | 52.44763 | 20.65199 | 340 ft | 3 kts | 211° |
| 2026-05-06 16:51 | 52.44784 | 20.65232 | 340 ft | 3 kts | 240° |
| 2026-05-06 16:51 | 52.44792 | 20.65265 | 340 ft | 2 kts | 261° |
| 2026-05-06 16:51 | 52.44792 | 20.65269 | 339 ft | 2 kts | 261° |
| 2026-05-06 16:55 | 52.44792 | 20.65263 | 337 ft | 1 kts | 261° |
| 2026-05-06 16:55 | 52.44787 | 20.65215 | 339 ft | 9 kts | 259° |
| 2026-05-06 16:56 | 52.44768 | 20.65056 | 340 ft | 18 kts | 259° |
| 2026-05-06 16:56 | 52.44748 | 20.64840 | 336 ft | 14 kts | 261° |
| 2026-05-06 16:56 | 52.44733 | 20.64684 | 337 ft | 14 kts | 261° |
| 2026-05-06 16:56 | 52.44718 | 20.64525 | 340 ft | 15 kts | 261° |
| 2026-05-06 16:57 | 52.44726 | 20.64388 | 337 ft | 9 kts | 326° |
| 2026-05-06 16:57 | 52.44787 | 20.64369 | 340 ft | 9 kts | 358° |
| 2026-05-06 16:57 | 52.44858 | 20.64371 | 338 ft | 11 kts | 1° |
| 2026-05-06 16:57 | 52.44939 | 20.64378 | 337 ft | 12 kts | 4° |
| 2026-05-06 16:58 | 52.45025 | 20.64404 | 349 ft | 13 kts | 28° |
| 2026-05-06 16:58 | 52.45056 | 20.64542 | 335 ft | 14 kts | 81° |
| 2026-05-06 16:58 | 52.45075 | 20.64713 | 340 ft | 16 kts | 78° |
| 2026-05-06 16:58 | 52.45094 | 20.64883 | 335 ft | 16 kts | 81° |
| 2026-05-06 16:59 | 52.45112 | 20.65067 | 337 ft | 17 kts | 81° |
| 2026-05-06 16:59 | 52.45132 | 20.65255 | 345 ft | 17 kts | 80° |
| 2026-05-06 16:59 | 52.45155 | 20.65465 | 343 ft | 20 kts | 80° |
| 2026-05-06 16:59 | 52.45176 | 20.65700 | 345 ft | 22 kts | 82° |
| 2026-05-06 17:00 | 52.45193 | 20.65961 | 341 ft | 24 kts | 83° |
| 2026-05-06 17:00 | 52.45221 | 20.66239 | 339 ft | 26 kts | 79° |
| 2026-05-06 17:00 | 52.45247 | 20.66525 | 336 ft | 25 kts | 83° |
| 2026-05-06 17:00 | 52.45266 | 20.66767 | 334 ft | 18 kts | 83° |
| 2026-05-06 17:01 | 52.45270 | 20.66909 | 336 ft | 4 kts | 91° |
| 2026-05-06 17:01 | 52.45269 | 20.66932 | 339 ft | 0 kts | 78° |
| 2026-05-06 17:01 | 52.45270 | 20.66933 | 341 ft | 0 kts | 59° |
| 2026-05-06 17:01 | 52.45272 | 20.66934 | 339 ft | 0 kts | 33° |
| 2026-05-06 17:02 | 52.45275 | 20.66935 | 341 ft | 0 kts | 18° |
| 2026-05-06 17:02 | 52.45277 | 20.66934 | 340 ft | 0 kts | 355° |
| 2026-05-06 17:02 | 52.45279 | 20.66929 | 340 ft | 0 kts | 310° |
| 2026-05-06 17:02 | 52.45279 | 20.66926 | 341 ft | 0 kts | 284° |
| 2026-05-06 17:03 | 52.45279 | 20.66923 | 341 ft | 0 kts | 265° |
| 2026-05-06 17:03 | 52.45278 | 20.66920 | 341 ft | 1 kts | 258° |
| 2026-05-06 17:03 | 52.45264 | 20.66809 | 338 ft | 38 kts | 258° |
| 2026-05-06 17:03 | 52.45185 | 20.65954 | 340 ft | 112 kts | 261° |
| 2026-05-06 17:04 | 52.45096 | 20.64964 | 340 ft | 152 kts | 262° |
| 2026-05-06 17:04 | 52.44935 | 20.62998 | 529 ft | 188 kts | 263° |
| 2026-05-06 17:04 | 52.44838 | 20.60783 | 1247 ft | 198 kts | 270° |
| 2026-05-06 17:04 | 52.45026 | 20.57682 | 2185 ft | 219 kts | 281° |
| 2026-05-06 17:05 | 52.45403 | 20.55172 | 2897 ft | 232 kts | 287° |
| 2026-05-06 17:05 | 52.45837 | 20.53490 | 3388 ft | 243 kts | 297° |
| 2026-05-06 17:05 | 52.46869 | 20.51206 | 4148 ft | 256 kts | 314° |
| 2026-05-06 17:05 | 52.48349 | 20.49504 | 4948 ft | 268 kts | 336° |
| 2026-05-06 17:06 | 52.50207 | 20.49002 | 5741 ft | 279 kts | 4° |
| 2026-05-06 17:06 | 52.52115 | 20.49761 | 6561 ft | 287 kts | 15° |
| 2026-05-06 17:06 | 52.54086 | 20.50401 | 7433 ft | 290 kts | 5° |
| 2026-05-06 17:06 | 52.56104 | 20.50718 | 8236 ft | 294 kts | 2° |
| 2026-05-06 17:07 | 52.58138 | 20.51261 | 8972 ft | 300 kts | 21° |
| 2026-05-06 17:07 | 52.59878 | 20.53164 | 9423 ft | 304 kts | 49° |
| 2026-05-06 17:07 | 52.60936 | 20.56122 | 9587 ft | 302 kts | 74° |
| 2026-05-06 17:07 | 52.61325 | 20.59501 | 9737 ft | 302 kts | 86° |
| 2026-05-06 17:08 | 52.61531 | 20.62951 | 9775 ft | 303 kts | 86° |
| 2026-05-06 17:08 | 52.61739 | 20.66358 | 9769 ft | 303 kts | 86° |
| 2026-05-06 17:08 | 52.61954 | 20.69805 | 9779 ft | 303 kts | 85° |
| 2026-05-06 17:08 | 52.62170 | 20.73251 | 9774 ft | 303 kts | 86° |
| 2026-05-06 17:09 | 52.62386 | 20.76697 | 9778 ft | 302 kts | 86° |
| 2026-05-06 17:09 | 52.62601 | 20.80146 | 9776 ft | 303 kts | 86° |
| 2026-05-06 17:09 | 52.62816 | 20.83598 | 9774 ft | 303 kts | 86° |
| 2026-05-06 17:09 | 52.63029 | 20.87041 | 9775 ft | 303 kts | 86° |
| 2026-05-06 17:10 | 52.63192 | 20.90502 | 9767 ft | 302 kts | 95° |
| 2026-05-06 17:10 | 52.62600 | 20.93710 | 9740 ft | 292 kts | 126° |
| 2026-05-06 17:10 | 52.61213 | 20.96118 | 9867 ft | 294 kts | 145° |
| 2026-05-06 17:10 | 52.59594 | 20.98293 | 10352 ft | 308 kts | 142° |
| 2026-05-06 17:11 | 52.57932 | 21.00615 | 10867 ft | 320 kts | 142° |
| 2026-05-06 17:11 | 52.56211 | 21.03018 | 11416 ft | 328 kts | 142° |
| 2026-05-06 17:11 | 52.54458 | 21.05457 | 12142 ft | 331 kts | 142° |
| 2026-05-06 17:11 | 52.52685 | 21.07921 | 12822 ft | 336 kts | 142° |
| 2026-05-06 17:12 | 52.50889 | 21.10409 | 13525 ft | 339 kts | 142° |
| 2026-05-06 17:12 | 52.49079 | 21.12913 | 14197 ft | 343 kts | 142° |
| 2026-05-06 17:12 | 52.47246 | 21.15446 | 14863 ft | 346 kts | 142° |
| 2026-05-06 17:12 | 52.45391 | 21.18008 | 15536 ft | 349 kts | 142° |
| 2026-05-06 17:13 | 52.43486 | 21.20496 | 16145 ft | 351 kts | 150° |
| 2026-05-06 17:13 | 52.41262 | 21.22022 | 16771 ft | 347 kts | 171° |
| 2026-05-06 17:13 | 52.38855 | 21.22226 | 17281 ft | 348 kts | 189° |
| 2026-05-06 17:13 | 52.36556 | 21.21117 | 17851 ft | 347 kts | 207° |
| 2026-05-06 17:14 | 52.34555 | 21.18909 | 18363 ft | 349 kts | 224° |
| 2026-05-06 17:14 | 52.32885 | 21.16021 | 18872 ft | 352 kts | 228° |
| 2026-05-06 17:14 | 52.31270 | 21.12983 | 19356 ft | 356 kts | 230° |
| 2026-05-06 17:14 | 52.29678 | 21.09862 | 19860 ft | 359 kts | 231° |
| 2026-05-06 17:15 | 52.28104 | 21.06712 | 20340 ft | 362 kts | 231° |
| 2026-05-06 17:15 | 52.26510 | 21.03491 | 20820 ft | 365 kts | 231° |
| 2026-05-06 17:15 | 52.24720 | 21.00558 | 21255 ft | 367 kts | 221° |
| 2026-05-06 17:15 | 52.22803 | 20.97769 | 21699 ft | 371 kts | 222° |
| 2026-05-06 17:16 | 52.20884 | 20.94959 | 22137 ft | 373 kts | 222° |
| 2026-05-06 17:16 | 52.18943 | 20.92121 | 22556 ft | 376 kts | 222° |
| 2026-05-06 17:16 | 52.16989 | 20.89266 | 22970 ft | 379 kts | 222° |
| 2026-05-06 17:16 | 52.15018 | 20.86391 | 23366 ft | 381 kts | 222° |
| 2026-05-06 17:17 | 52.13037 | 20.83505 | 23763 ft | 384 kts | 222° |
| 2026-05-06 17:17 | 52.11041 | 20.80599 | 24148 ft | 386 kts | 222° |
| 2026-05-06 17:17 | 52.09026 | 20.77670 | 24528 ft | 389 kts | 222° |
| 2026-05-06 17:17 | 52.07007 | 20.74740 | 24931 ft | 390 kts | 222° |
| 2026-05-06 17:18 | 52.04977 | 20.71796 | 25303 ft | 392 kts | 222° |
| 2026-05-06 17:18 | 52.02933 | 20.68837 | 25675 ft | 394 kts | 222° |
| 2026-05-06 17:18 | 52.00885 | 20.65876 | 26071 ft | 395 kts | 222° |
| 2026-05-06 17:18 | 51.98829 | 20.62906 | 26396 ft | 397 kts | 222° |
| 2026-05-06 17:19 | 51.96759 | 20.59918 | 26733 ft | 399 kts | 222° |
| 2026-05-06 17:19 | 51.94509 | 20.57279 | 27038 ft | 401 kts | 206° |
| 2026-05-06 17:19 | 51.91912 | 20.55621 | 27445 ft | 401 kts | 202° |
| 2026-05-06 17:19 | 51.89289 | 20.54015 | 27649 ft | 406 kts | 201° |
| 2026-05-06 17:20 | 51.86639 | 20.52425 | 28003 ft | 406 kts | 201° |
| 2026-05-06 17:20 | 51.83970 | 20.50850 | 28290 ft | 408 kts | 201° |
| 2026-05-06 17:20 | 51.81309 | 20.49292 | 28585 ft | 410 kts | 201° |
| 2026-05-06 17:20 | 51.78620 | 20.47724 | 28878 ft | 411 kts | 201° |
| 2026-05-06 17:21 | 51.75926 | 20.46156 | 29149 ft | 412 kts | 201° |
| 2026-05-06 17:21 | 51.73226 | 20.44587 | 29420 ft | 414 kts | 201° |
| 2026-05-06 17:21 | 51.70515 | 20.43014 | 29696 ft | 415 kts | 201° |
| 2026-05-06 17:21 | 51.67794 | 20.41437 | 29964 ft | 416 kts | 201° |
| 2026-05-06 17:22 | 51.65027 | 20.40045 | 30186 ft | 419 kts | 191° |
| 2026-05-06 17:22 | 51.62116 | 20.39603 | 30497 ft | 419 kts | 187° |
| 2026-05-06 17:22 | 51.59206 | 20.39118 | 30627 ft | 423 kts | 188° |
| 2026-05-06 17:22 | 51.56271 | 20.38645 | 30871 ft | 424 kts | 187° |
| 2026-05-06 17:23 | 51.53372 | 20.38197 | 31079 ft | 426 kts | 187° |
| 2026-05-06 17:23 | 51.50410 | 20.37747 | 31260 ft | 428 kts | 187° |
| 2026-05-06 17:23 | 51.47442 | 20.37300 | 31476 ft | 429 kts | 187° |
| 2026-05-06 17:23 | 51.44462 | 20.36852 | 31685 ft | 431 kts | 187° |
| 2026-05-06 17:24 | 51.41482 | 20.36373 | 31877 ft | 431 kts | 191° |
| 2026-05-06 17:24 | 51.38622 | 20.35003 | 32038 ft | 428 kts | 208° |
| 2026-05-06 17:24 | 51.36112 | 20.32471 | 32227 ft | 428 kts | 216° |
| 2026-05-06 17:25 | 51.31260 | 20.26845 | 32535 ft | 432 kts | 217° |
| 2026-05-06 17:25 | 51.28850 | 20.23983 | 32753 ft | 432 kts | 217° |
| 2026-05-06 17:25 | 51.26445 | 20.21105 | 32998 ft | 431 kts | 218° |
| 2026-05-06 17:25 | 51.24050 | 20.18230 | 33231 ft | 431 kts | 218° |
| 2026-05-06 17:26 | 51.21654 | 20.15356 | 33470 ft | 430 kts | 218° |
| 2026-05-06 17:26 | 51.19265 | 20.12492 | 33694 ft | 430 kts | 218° |
| 2026-05-06 17:26 | 51.16876 | 20.09632 | 33908 ft | 429 kts | 218° |
| 2026-05-06 17:26 | 51.14493 | 20.06782 | 34105 ft | 429 kts | 218° |
| 2026-05-06 17:27 | 51.12111 | 20.03938 | 34297 ft | 428 kts | 218° |
| 2026-05-06 17:27 | 51.09726 | 20.01098 | 34485 ft | 428 kts | 218° |
| 2026-05-06 17:27 | 51.07338 | 19.98261 | 34655 ft | 428 kts | 218° |
| 2026-05-06 17:27 | 51.04952 | 19.95430 | 34863 ft | 427 kts | 217° |
| 2026-05-06 17:28 | 51.02573 | 19.92611 | 35035 ft | 427 kts | 218° |
| 2026-05-06 17:28 | 51.00187 | 19.89784 | 35194 ft | 427 kts | 218° |
| 2026-05-06 17:28 | 50.97807 | 19.86969 | 35367 ft | 427 kts | 218° |
| 2026-05-06 17:28 | 50.95422 | 19.84150 | 35504 ft | 427 kts | 218° |
| 2026-05-06 17:29 | 50.93051 | 19.81350 | 35652 ft | 427 kts | 218° |
| 2026-05-06 17:29 | 50.90662 | 19.78535 | 35787 ft | 427 kts | 217° |
| 2026-05-06 17:29 | 50.88279 | 19.75731 | 35910 ft | 427 kts | 218° |
| 2026-05-06 17:29 | 50.85892 | 19.72926 | 36050 ft | 427 kts | 218° |
| 2026-05-06 17:30 | 50.83504 | 19.70122 | 36168 ft | 427 kts | 217° |
| 2026-05-06 17:30 | 50.81121 | 19.67328 | 36287 ft | 427 kts | 218° |
| 2026-05-06 17:30 | 50.78730 | 19.64529 | 36390 ft | 427 kts | 217° |
| 2026-05-06 17:30 | 50.76341 | 19.61734 | 36502 ft | 428 kts | 218° |
| 2026-05-06 17:31 | 50.73947 | 19.58938 | 36620 ft | 428 kts | 217° |
| 2026-05-06 17:31 | 50.71559 | 19.56154 | 36848 ft | 424 kts | 217° |
| 2026-05-06 17:31 | 50.69198 | 19.53403 | 37112 ft | 420 kts | 217° |
| 2026-05-06 17:31 | 50.66854 | 19.50677 | 37259 ft | 419 kts | 217° |
| 2026-05-06 17:32 | 50.64509 | 19.47952 | 37338 ft | 419 kts | 217° |
| 2026-05-06 17:32 | 50.59822 | 19.42515 | 37475 ft | 419 kts | 218° |
| 2026-05-06 17:33 | 50.55153 | 19.37115 | 37615 ft | 419 kts | 217° |
| 2026-05-06 17:33 | 50.52815 | 19.34416 | 37739 ft | 417 kts | 217° |
| 2026-05-06 17:33 | 50.50476 | 19.31719 | 37792 ft | 417 kts | 218° |
| 2026-05-06 17:34 | 50.45786 | 19.26322 | 37776 ft | 418 kts | 217° |
| 2026-05-06 17:34 | 50.41085 | 19.20924 | 37776 ft | 418 kts | 217° |
| 2026-05-06 17:35 | 50.36388 | 19.15544 | 37776 ft | 418 kts | 217° |
| 2026-05-06 17:35 | 50.31687 | 19.10174 | 37776 ft | 418 kts | 217° |
| 2026-05-06 17:36 | 50.24638 | 19.02148 | 37773 ft | 418 kts | 217° |
| 2026-05-06 17:36 | 50.19936 | 18.96810 | 37775 ft | 418 kts | 217° |
| 2026-05-06 17:37 | 50.15235 | 18.91487 | 37776 ft | 418 kts | 217° |
| 2026-05-06 17:37 | 50.10534 | 18.86177 | 37776 ft | 417 kts | 217° |
| 2026-05-06 17:38 | 50.05835 | 18.80881 | 37777 ft | 417 kts | 217° |
| 2026-05-06 17:38 | 50.01130 | 18.75594 | 37784 ft | 417 kts | 217° |
| 2026-05-06 17:39 | 49.96424 | 18.70316 | 37786 ft | 417 kts | 217° |
| 2026-05-06 17:39 | 49.91729 | 18.65062 | 37786 ft | 416 kts | 217° |
| 2026-05-06 17:40 | 49.87034 | 18.59821 | 37784 ft | 416 kts | 217° |
| 2026-05-06 17:40 | 49.82948 | 18.53637 | 37836 ft | 407 kts | 232° |
| 2026-05-06 17:41 | 49.79304 | 18.46861 | 37723 ft | 410 kts | 231° |
| 2026-05-06 17:41 | 49.75680 | 18.40043 | 37777 ft | 412 kts | 231° |
| 2026-05-06 17:42 | 49.72051 | 18.33185 | 37780 ft | 413 kts | 231° |
| 2026-05-06 17:42 | 49.68406 | 18.26310 | 37774 ft | 413 kts | 231° |
| 2026-05-06 17:43 | 49.64757 | 18.19443 | 37774 ft | 414 kts | 231° |
| 2026-05-06 17:43 | 49.61101 | 18.12582 | 37771 ft | 413 kts | 231° |
| 2026-05-06 17:44 | 49.57478 | 18.05800 | 37778 ft | 414 kts | 231° |
| 2026-05-06 17:44 | 49.53791 | 17.98916 | 37772 ft | 414 kts | 231° |
| 2026-05-06 17:45 | 49.50153 | 17.92142 | 37778 ft | 413 kts | 231° |
| 2026-05-06 17:45 | 49.46489 | 17.85337 | 37777 ft | 413 kts | 231° |
| 2026-05-06 17:46 | 49.42821 | 17.78542 | 37778 ft | 413 kts | 231° |
| 2026-05-06 17:46 | 49.39147 | 17.71754 | 37780 ft | 413 kts | 231° |
| 2026-05-06 17:47 | 49.35475 | 17.64985 | 37776 ft | 412 kts | 231° |
| 2026-05-06 17:47 | 49.31802 | 17.58234 | 37775 ft | 413 kts | 231° |
| 2026-05-06 17:48 | 49.28120 | 17.51483 | 37774 ft | 412 kts | 231° |
| 2026-05-06 17:48 | 49.24442 | 17.44754 | 37775 ft | 412 kts | 231° |
| 2026-05-06 17:49 | 49.21381 | 17.39170 | 37779 ft | 412 kts | 231° |
| 2026-05-06 17:49 | 49.17673 | 17.32420 | 37767 ft | 412 kts | 230° |
| 2026-05-06 17:50 | 49.13978 | 17.25710 | 37760 ft | 412 kts | 230° |
| 2026-05-06 17:50 | 49.10311 | 17.19069 | 37766 ft | 412 kts | 230° |
| 2026-05-06 17:51 | 49.06589 | 17.12346 | 37768 ft | 412 kts | 230° |
| 2026-05-06 17:51 | 49.02917 | 17.05727 | 37769 ft | 412 kts | 230° |
| 2026-05-06 17:52 | 48.99229 | 16.99100 | 37762 ft | 412 kts | 230° |
| 2026-05-06 17:52 | 48.95528 | 16.92462 | 37760 ft | 412 kts | 230° |
| 2026-05-06 17:53 | 48.91822 | 16.85835 | 37761 ft | 411 kts | 230° |
| 2026-05-06 17:53 | 48.88114 | 16.79219 | 37757 ft | 411 kts | 230° |
| 2026-05-06 17:54 | 48.84398 | 16.72602 | 37758 ft | 412 kts | 230° |
| 2026-05-06 17:54 | 48.80682 | 16.66000 | 37761 ft | 411 kts | 230° |
| 2026-05-06 17:55 | 48.77249 | 16.59128 | 37757 ft | 408 kts | 237° |
| 2026-05-06 17:55 | 48.74170 | 16.51889 | 37745 ft | 410 kts | 237° |
| 2026-05-06 17:56 | 48.71094 | 16.44632 | 37750 ft | 410 kts | 237° |
| 2026-05-06 17:56 | 48.68004 | 16.37355 | 37749 ft | 410 kts | 237° |
| 2026-05-06 17:57 | 48.64919 | 16.30109 | 37751 ft | 411 kts | 237° |
| 2026-05-06 17:57 | 48.61824 | 16.22858 | 37745 ft | 410 kts | 237° |
| 2026-05-06 17:58 | 48.58731 | 16.15632 | 37749 ft | 410 kts | 237° |
| 2026-05-06 17:58 | 48.55633 | 16.08411 | 37747 ft | 409 kts | 237° |
| 2026-05-06 17:59 | 48.52534 | 16.01210 | 37750 ft | 409 kts | 237° |
| 2026-05-06 17:59 | 48.49429 | 15.94013 | 37747 ft | 410 kts | 237° |
| 2026-05-06 18:00 | 48.46319 | 15.86824 | 37748 ft | 410 kts | 237° |
| 2026-05-06 18:00 | 48.43204 | 15.79642 | 37752 ft | 409 kts | 237° |
| 2026-05-06 18:01 | 48.40084 | 15.72466 | 37755 ft | 410 kts | 237° |
| 2026-05-06 18:01 | 48.36964 | 15.65311 | 37757 ft | 409 kts | 237° |
| 2026-05-06 18:02 | 48.33858 | 15.58208 | 37756 ft | 409 kts | 236° |
| 2026-05-06 18:02 | 48.30730 | 15.51072 | 37760 ft | 409 kts | 236° |
| 2026-05-06 18:03 | 48.27594 | 15.43938 | 37761 ft | 409 kts | 236° |
| 2026-05-06 18:03 | 48.24449 | 15.36799 | 37733 ft | 409 kts | 236° |
| 2026-05-06 18:04 | 48.21305 | 15.29683 | 37708 ft | 410 kts | 236° |
| 2026-05-06 18:04 | 48.18151 | 15.22564 | 37749 ft | 411 kts | 236° |
| 2026-05-06 18:05 | 48.14987 | 15.15442 | 37735 ft | 411 kts | 236° |
| 2026-05-06 18:05 | 48.11818 | 15.08325 | 37737 ft | 411 kts | 236° |
| 2026-05-06 18:06 | 48.08646 | 15.01221 | 37733 ft | 410 kts | 236° |
| 2026-05-06 18:06 | 48.05470 | 14.94126 | 37724 ft | 411 kts | 236° |
| 2026-05-06 18:07 | 48.02290 | 14.87040 | 37729 ft | 411 kts | 236° |
| 2026-05-06 18:07 | 47.99100 | 14.79953 | 37732 ft | 411 kts | 236° |
| 2026-05-06 18:08 | 47.95915 | 14.72891 | 37728 ft | 411 kts | 236° |
| 2026-05-06 18:08 | 47.92719 | 14.65826 | 37726 ft | 411 kts | 235° |
| 2026-05-06 18:09 | 47.89534 | 14.58804 | 37750 ft | 412 kts | 236° |
| 2026-05-06 18:09 | 47.86298 | 14.51686 | 37755 ft | 412 kts | 236° |
| 2026-05-06 18:10 | 47.83103 | 14.44678 | 37759 ft | 412 kts | 235° |
| 2026-05-06 18:10 | 47.79889 | 14.37645 | 37766 ft | 412 kts | 235° |
| 2026-05-06 18:11 | 47.76665 | 14.30610 | 37770 ft | 411 kts | 235° |
| 2026-05-06 18:11 | 47.73436 | 14.23581 | 37741 ft | 411 kts | 235° |
| 2026-05-06 18:12 | 47.70210 | 14.16576 | 37769 ft | 412 kts | 235° |
| 2026-05-06 18:12 | 47.66979 | 14.09580 | 37787 ft | 411 kts | 235° |
| 2026-05-06 18:13 | 47.63740 | 14.02583 | 37793 ft | 411 kts | 235° |
| 2026-05-06 18:13 | 47.60496 | 13.95593 | 37784 ft | 411 kts | 235° |
| 2026-05-06 18:14 | 47.57249 | 13.88615 | 37801 ft | 412 kts | 235° |
| 2026-05-06 18:14 | 47.53993 | 13.81634 | 37797 ft | 412 kts | 235° |
| 2026-05-06 18:15 | 47.50732 | 13.74662 | 37799 ft | 412 kts | 235° |
| 2026-05-06 18:15 | 47.47464 | 13.67693 | 37809 ft | 413 kts | 235° |
| 2026-05-06 18:16 | 47.44188 | 13.60722 | 37827 ft | 413 kts | 235° |
| 2026-05-06 18:16 | 47.40906 | 13.53758 | 37825 ft | 413 kts | 235° |
| 2026-05-06 18:17 | 47.37619 | 13.46801 | 37827 ft | 413 kts | 235° |
| 2026-05-06 18:17 | 47.34324 | 13.39844 | 37833 ft | 414 kts | 234° |
| 2026-05-06 18:18 | 47.31024 | 13.32894 | 37844 ft | 414 kts | 234° |
| 2026-05-06 18:18 | 47.27714 | 13.25942 | 37811 ft | 414 kts | 234° |
| 2026-05-06 18:19 | 47.26065 | 13.22484 | 37611 ft | 410 kts | 234° |
| 2026-05-06 18:19 | 47.24435 | 13.19070 | 37365 ft | 406 kts | 234° |
| 2026-05-06 18:19 | 47.22819 | 13.15690 | 37118 ft | 403 kts | 234° |
| 2026-05-06 18:19 | 47.21205 | 13.12319 | 36884 ft | 401 kts | 234° |
| 2026-05-06 18:20 | 47.19607 | 13.08983 | 36651 ft | 398 kts | 234° |
| 2026-05-06 18:20 | 47.18013 | 13.05663 | 36413 ft | 396 kts | 234° |
| 2026-05-06 18:20 | 47.16447 | 13.02403 | 36176 ft | 395 kts | 234° |
| 2026-05-06 18:20 | 47.14840 | 12.99062 | 35941 ft | 396 kts | 234° |
| 2026-05-06 18:21 | 47.13249 | 12.95762 | 35704 ft | 396 kts | 234° |
| 2026-05-06 18:21 | 47.11683 | 12.92509 | 35477 ft | 394 kts | 234° |
| 2026-05-06 18:21 | 47.10083 | 12.89194 | 35239 ft | 393 kts | 234° |
| 2026-05-06 18:21 | 47.08526 | 12.85975 | 35018 ft | 391 kts | 234° |
| 2026-05-06 18:22 | 47.06955 | 12.82727 | 34782 ft | 389 kts | 234° |
| 2026-05-06 18:22 | 47.05394 | 12.79505 | 34554 ft | 387 kts | 234° |
| 2026-05-06 18:22 | 47.03840 | 12.76301 | 34311 ft | 384 kts | 234° |
| 2026-05-06 18:22 | 47.02295 | 12.73119 | 34084 ft | 382 kts | 234° |
| 2026-05-06 18:23 | 47.00757 | 12.69954 | 33855 ft | 380 kts | 234° |
| 2026-05-06 18:23 | 46.99224 | 12.66802 | 33614 ft | 378 kts | 234° |
| 2026-05-06 18:23 | 46.97702 | 12.63677 | 33383 ft | 376 kts | 234° |
| 2026-05-06 18:23 | 46.96187 | 12.60569 | 33145 ft | 375 kts | 234° |
| 2026-05-06 18:24 | 46.94678 | 12.57477 | 32930 ft | 373 kts | 234° |
| 2026-05-06 18:24 | 46.93172 | 12.54392 | 32688 ft | 372 kts | 234° |
| 2026-05-06 18:24 | 46.91670 | 12.51322 | 32460 ft | 371 kts | 234° |
| 2026-05-06 18:24 | 46.90169 | 12.48256 | 32234 ft | 369 kts | 234° |
| 2026-05-06 18:25 | 46.88680 | 12.45216 | 31998 ft | 367 kts | 234° |
| 2026-05-06 18:25 | 46.87196 | 12.42190 | 31785 ft | 366 kts | 234° |
| 2026-05-06 18:25 | 46.85716 | 12.39178 | 31554 ft | 364 kts | 234° |
| 2026-05-06 18:25 | 46.84238 | 12.36171 | 31317 ft | 363 kts | 234° |
| 2026-05-06 18:26 | 46.82766 | 12.33181 | 31103 ft | 361 kts | 234° |
| 2026-05-06 18:26 | 46.81308 | 12.30221 | 30857 ft | 360 kts | 234° |
| 2026-05-06 18:26 | 46.79928 | 12.27178 | 30597 ft | 358 kts | 242° |
| 2026-05-06 18:26 | 46.78839 | 12.23922 | 30392 ft | 357 kts | 242° |
| 2026-05-06 18:27 | 46.77722 | 12.20689 | 30167 ft | 356 kts | 242° |
| 2026-05-06 18:27 | 46.76613 | 12.17464 | 29926 ft | 355 kts | 242° |
| 2026-05-06 18:27 | 46.75509 | 12.14250 | 29699 ft | 354 kts | 242° |
| 2026-05-06 18:27 | 46.74407 | 12.11044 | 29468 ft | 353 kts | 242° |
| 2026-05-06 18:28 | 46.73312 | 12.07857 | 29217 ft | 351 kts | 242° |
| 2026-05-06 18:28 | 46.72218 | 12.04679 | 28996 ft | 351 kts | 242° |
| 2026-05-06 18:28 | 46.71140 | 12.01549 | 28754 ft | 349 kts | 242° |
| 2026-05-06 18:28 | 46.70051 | 11.98393 | 28486 ft | 349 kts | 242° |
| 2026-05-06 18:29 | 46.68960 | 11.95233 | 28092 ft | 347 kts | 242° |
| 2026-05-06 18:29 | 46.67881 | 11.92111 | 27724 ft | 343 kts | 242° |
| 2026-05-06 18:29 | 46.66808 | 11.89013 | 27458 ft | 343 kts | 242° |
| 2026-05-06 18:29 | 46.65737 | 11.85919 | 27163 ft | 342 kts | 242° |
| 2026-05-06 18:30 | 46.64660 | 11.82816 | 26875 ft | 342 kts | 242° |
| 2026-05-06 18:30 | 46.63591 | 11.79740 | 26561 ft | 340 kts | 242° |
| 2026-05-06 18:30 | 46.62526 | 11.76678 | 26255 ft | 339 kts | 242° |
| 2026-05-06 18:30 | 46.61463 | 11.73623 | 25954 ft | 338 kts | 242° |
| 2026-05-06 18:31 | 46.60401 | 11.70577 | 25654 ft | 337 kts | 242° |
| 2026-05-06 18:31 | 46.59340 | 11.67538 | 25343 ft | 336 kts | 242° |
| 2026-05-06 18:31 | 46.58285 | 11.64518 | 25050 ft | 335 kts | 242° |
| 2026-05-06 18:31 | 46.57229 | 11.61499 | 24734 ft | 334 kts | 242° |
| 2026-05-06 18:32 | 46.56180 | 11.58504 | 24439 ft | 333 kts | 242° |
| 2026-05-06 18:32 | 46.55128 | 11.55503 | 24129 ft | 332 kts | 242° |
| 2026-05-06 18:32 | 46.54081 | 11.52521 | 23821 ft | 331 kts | 242° |
| 2026-05-06 18:32 | 46.53039 | 11.49554 | 23510 ft | 330 kts | 242° |
| 2026-05-06 18:33 | 46.51997 | 11.46594 | 23202 ft | 328 kts | 242° |
| 2026-05-06 18:33 | 46.50962 | 11.43654 | 22894 ft | 327 kts | 242° |
| 2026-05-06 18:33 | 46.49928 | 11.40722 | 22597 ft | 325 kts | 242° |
| 2026-05-06 18:33 | 46.48899 | 11.37806 | 22274 ft | 324 kts | 241° |
| 2026-05-06 18:34 | 46.47877 | 11.34911 | 22044 ft | 322 kts | 242° |
| 2026-05-06 18:34 | 46.46856 | 11.32025 | 21790 ft | 322 kts | 242° |
| 2026-05-06 18:34 | 46.45837 | 11.29149 | 21526 ft | 320 kts | 242° |
| 2026-05-06 18:34 | 46.44821 | 11.26282 | 21271 ft | 319 kts | 242° |
| 2026-05-06 18:35 | 46.43811 | 11.23436 | 21012 ft | 317 kts | 241° |
| 2026-05-06 18:35 | 46.43140 | 11.21548 | 20837 ft | 316 kts | 241° |
| 2026-05-06 18:35 | 46.42136 | 11.18722 | 20586 ft | 315 kts | 241° |
| 2026-05-06 18:35 | 46.41130 | 11.15898 | 20321 ft | 314 kts | 241° |
| 2026-05-06 18:36 | 46.40132 | 11.13096 | 20062 ft | 313 kts | 241° |
| 2026-05-06 18:36 | 46.39134 | 11.10295 | 19805 ft | 312 kts | 241° |
| 2026-05-06 18:36 | 46.38141 | 11.07513 | 19546 ft | 310 kts | 241° |
| 2026-05-06 18:36 | 46.37151 | 11.04744 | 19279 ft | 309 kts | 241° |
| 2026-05-06 18:37 | 46.36167 | 11.01995 | 19015 ft | 308 kts | 241° |
| 2026-05-06 18:37 | 46.35184 | 10.99248 | 18754 ft | 307 kts | 241° |
| 2026-05-06 18:37 | 46.34201 | 10.96504 | 18505 ft | 307 kts | 241° |
| 2026-05-06 18:37 | 46.33223 | 10.93780 | 18357 ft | 304 kts | 241° |
| 2026-05-06 18:38 | 46.32245 | 10.91051 | 18068 ft | 304 kts | 241° |
| 2026-05-06 18:38 | 46.31271 | 10.88341 | 17825 ft | 303 kts | 241° |
| 2026-05-06 18:38 | 46.30319 | 10.85649 | 17595 ft | 303 kts | 242° |
| 2026-05-06 18:38 | 46.29378 | 10.82933 | 17358 ft | 302 kts | 242° |
| 2026-05-06 18:39 | 46.28430 | 10.80226 | 17003 ft | 302 kts | 241° |
| 2026-05-06 18:39 | 46.27493 | 10.77523 | 16785 ft | 299 kts | 242° |
| 2026-05-06 18:39 | 46.26563 | 10.74838 | 16534 ft | 298 kts | 242° |
| 2026-05-06 18:40 | 46.24719 | 10.69545 | 16044 ft | 297 kts | 242° |
| 2026-05-06 18:40 | 46.23793 | 10.66896 | 15909 ft | 295 kts | 242° |
| 2026-05-06 18:40 | 46.22869 | 10.64251 | 15922 ft | 296 kts | 242° |
| 2026-05-06 18:40 | 46.21941 | 10.61601 | 15947 ft | 296 kts | 242° |
| 2026-05-06 18:41 | 46.21013 | 10.58952 | 15920 ft | 297 kts | 242° |
| 2026-05-06 18:41 | 46.20083 | 10.56299 | 15910 ft | 296 kts | 242° |
| 2026-05-06 18:41 | 46.19151 | 10.53643 | 15895 ft | 296 kts | 242° |
| 2026-05-06 18:41 | 46.18220 | 10.50993 | 15939 ft | 296 kts | 242° |
| 2026-05-06 18:42 | 46.17285 | 10.48332 | 15913 ft | 297 kts | 242° |
| 2026-05-06 18:42 | 46.16351 | 10.45678 | 15904 ft | 296 kts | 242° |
| 2026-05-06 18:42 | 46.15417 | 10.43029 | 15955 ft | 297 kts | 242° |
| 2026-05-06 18:42 | 46.14479 | 10.40366 | 15939 ft | 297 kts | 242° |
| 2026-05-06 18:43 | 46.13542 | 10.37712 | 15932 ft | 297 kts | 242° |
| 2026-05-06 18:43 | 46.12608 | 10.35066 | 15980 ft | 297 kts | 242° |
| 2026-05-06 18:43 | 46.11673 | 10.32420 | 16038 ft | 297 kts | 242° |
| 2026-05-06 18:43 | 46.10735 | 10.29767 | 16024 ft | 296 kts | 242° |
| 2026-05-06 18:44 | 46.09800 | 10.27129 | 15990 ft | 296 kts | 242° |
| 2026-05-06 18:44 | 46.08863 | 10.24486 | 16048 ft | 296 kts | 242° |
| 2026-05-06 18:44 | 46.07938 | 10.21877 | 16020 ft | 296 kts | 242° |
| 2026-05-06 18:44 | 46.06999 | 10.19235 | 16011 ft | 296 kts | 242° |
| 2026-05-06 18:45 | 46.06063 | 10.16600 | 15992 ft | 296 kts | 242° |
| 2026-05-06 18:45 | 46.05124 | 10.13962 | 16023 ft | 296 kts | 242° |
| 2026-05-06 18:45 | 46.04001 | 10.11532 | 15911 ft | 289 kts | 223° |
| 2026-05-06 18:45 | 46.02425 | 10.09760 | 16040 ft | 290 kts | 218° |
| 2026-05-06 18:46 | 46.00845 | 10.07960 | 15962 ft | 289 kts | 218° |
| 2026-05-06 18:46 | 45.99260 | 10.06177 | 15978 ft | 290 kts | 218° |
| 2026-05-06 18:46 | 45.97663 | 10.04400 | 15973 ft | 291 kts | 217° |
| 2026-05-06 18:46 | 45.96060 | 10.02629 | 16021 ft | 291 kts | 217° |
| 2026-05-06 18:47 | 45.94452 | 10.00863 | 16008 ft | 291 kts | 217° |
| 2026-05-06 18:47 | 45.92845 | 9.99102 | 15991 ft | 290 kts | 217° |
| 2026-05-06 18:47 | 45.91238 | 9.97344 | 15997 ft | 291 kts | 217° |
| 2026-05-06 18:47 | 45.89632 | 9.95588 | 16002 ft | 291 kts | 217° |
| 2026-05-06 18:48 | 45.88027 | 9.93830 | 15979 ft | 290 kts | 217° |
| 2026-05-06 18:48 | 45.86425 | 9.92077 | 16011 ft | 290 kts | 217° |
| 2026-05-06 18:48 | 45.84815 | 9.90318 | 16003 ft | 290 kts | 217° |
| 2026-05-06 18:48 | 45.83210 | 9.88567 | 15997 ft | 290 kts | 217° |
| 2026-05-06 18:49 | 45.81604 | 9.86818 | 16003 ft | 290 kts | 217° |
| 2026-05-06 18:49 | 45.80000 | 9.85071 | 15992 ft | 290 kts | 217° |
| 2026-05-06 18:49 | 45.78397 | 9.83328 | 15995 ft | 290 kts | 217° |
| 2026-05-06 18:49 | 45.76788 | 9.81578 | 15994 ft | 290 kts | 217° |
| 2026-05-06 18:50 | 45.75180 | 9.79833 | 15989 ft | 290 kts | 217° |
| 2026-05-06 18:50 | 45.73572 | 9.78087 | 15997 ft | 290 kts | 217° |
| 2026-05-06 18:50 | 45.71954 | 9.76334 | 15639 ft | 296 kts | 217° |
| 2026-05-06 18:50 | 45.70301 | 9.74545 | 15206 ft | 298 kts | 217° |
| 2026-05-06 18:51 | 45.68591 | 9.72841 | 14718 ft | 301 kts | 207° |
| 2026-05-06 18:51 | 45.66575 | 9.72053 | 14244 ft | 305 kts | 183° |
| 2026-05-06 18:51 | 45.64511 | 9.72496 | 13794 ft | 310 kts | 161° |
| 2026-05-06 18:51 | 45.62514 | 9.73716 | 13374 ft | 311 kts | 159° |
| 2026-05-06 18:52 | 45.60491 | 9.74954 | 12899 ft | 313 kts | 159° |
| 2026-05-06 18:52 | 45.58482 | 9.76193 | 12422 ft | 316 kts | 158° |
| 2026-05-06 18:52 | 45.56465 | 9.77442 | 11951 ft | 318 kts | 158° |
| 2026-05-06 18:52 | 45.54459 | 9.78686 | 11492 ft | 320 kts | 158° |
| 2026-05-06 18:53 | 45.52379 | 9.79760 | 11129 ft | 315 kts | 171° |
| 2026-05-06 18:53 | 45.50255 | 9.80205 | 11082 ft | 301 kts | 173° |
| 2026-05-06 18:53 | 45.48198 | 9.80651 | 11016 ft | 290 kts | 172° |
| 2026-05-06 18:53 | 45.46244 | 9.81083 | 10919 ft | 279 kts | 172° |
| 2026-05-06 18:54 | 45.44359 | 9.81499 | 10834 ft | 269 kts | 173° |
| 2026-05-06 18:54 | 45.42574 | 9.81896 | 10761 ft | 258 kts | 172° |
| 2026-05-06 18:54 | 45.40840 | 9.82281 | 10666 ft | 247 kts | 172° |
| 2026-05-06 18:54 | 45.39117 | 9.82664 | 10618 ft | 253 kts | 172° |
| 2026-05-06 18:55 | 45.37372 | 9.83051 | 10570 ft | 260 kts | 172° |
| 2026-05-06 18:55 | 45.35591 | 9.83447 | 10411 ft | 259 kts | 172° |
| 2026-05-06 18:55 | 45.33804 | 9.83878 | 10004 ft | 263 kts | 166° |
| 2026-05-06 18:55 | 45.32192 | 9.85124 | 9534 ft | 270 kts | 136° |
| 2026-05-06 18:56 | 45.31186 | 9.87373 | 9100 ft | 275 kts | 109° |
| 2026-05-06 18:56 | 45.30680 | 9.89996 | 8749 ft | 276 kts | 107° |
| 2026-05-06 18:56 | 45.30241 | 9.92662 | 8311 ft | 280 kts | 94° |
| 2026-05-06 18:56 | 45.30624 | 9.95376 | 7818 ft | 288 kts | 61° |
| 2026-05-06 18:57 | 45.31983 | 9.97403 | 7522 ft | 284 kts | 31° |
| 2026-05-06 18:57 | 45.33777 | 9.98439 | 7378 ft | 275 kts | 10° |
| 2026-05-06 18:57 | 45.35651 | 9.98462 | 7206 ft | 267 kts | 349° |
| 2026-05-06 18:57 | 45.37464 | 9.98109 | 7080 ft | 259 kts | 354° |
| 2026-05-06 18:58 | 45.39238 | 9.97862 | 6924 ft | 254 kts | 354° |
| 2026-05-06 18:58 | 45.40987 | 9.97615 | 6763 ft | 251 kts | 354° |
| 2026-05-06 18:58 | 45.42716 | 9.97370 | 6611 ft | 247 kts | 354° |
| 2026-05-06 18:58 | 45.44405 | 9.97131 | 6448 ft | 242 kts | 354° |
| 2026-05-06 18:59 | 45.46071 | 9.96903 | 6272 ft | 240 kts | 354° |
| 2026-05-06 18:59 | 45.47718 | 9.96667 | 6099 ft | 236 kts | 354° |
| 2026-05-06 18:59 | 45.49352 | 9.96453 | 5980 ft | 236 kts | 358° |
| 2026-05-06 18:59 | 45.50956 | 9.96810 | 5950 ft | 234 kts | 15° |
| 2026-05-06 19:00 | 45.52545 | 9.97407 | 6028 ft | 237 kts | 14° |
| 2026-05-06 19:00 | 45.54136 | 9.97999 | 6002 ft | 237 kts | 14° |
| 2026-05-06 19:00 | 45.55725 | 9.98597 | 5984 ft | 237 kts | 15° |
| 2026-05-06 19:00 | 45.57312 | 9.99199 | 6037 ft | 235 kts | 15° |
| 2026-05-06 19:01 | 45.58901 | 9.99774 | 6076 ft | 236 kts | 9° |
| 2026-05-06 19:01 | 45.60502 | 9.99488 | 5749 ft | 234 kts | 332° |
| 2026-05-06 19:01 | 45.61631 | 9.97906 | 5283 ft | 229 kts | 295° |
| 2026-05-06 19:01 | 45.62105 | 9.95764 | 4874 ft | 226 kts | 283° |
| 2026-05-06 19:02 | 45.62505 | 9.93601 | 4407 ft | 225 kts | 284° |
| 2026-05-06 19:02 | 45.62902 | 9.91457 | 4062 ft | 222 kts | 284° |
| 2026-05-06 19:02 | 45.63303 | 9.89322 | 3982 ft | 223 kts | 284° |
| 2026-05-06 19:02 | 45.63678 | 9.87314 | 3865 ft | 197 kts | 284° |
| 2026-05-06 19:03 | 45.64095 | 9.85518 | 3571 ft | 188 kts | 300° |
| 2026-05-06 19:03 | 45.65059 | 9.84354 | 3243 ft | 181 kts | 343° |
| 2026-05-06 19:03 | 45.66305 | 9.84237 | 3408 ft | 183 kts | 9° |
| 2026-05-06 19:03 | 45.67528 | 9.84784 | 3462 ft | 186 kts | 25° |
| 2026-05-06 19:04 | 45.68709 | 9.85575 | 3537 ft | 188 kts | 29° |
| 2026-05-06 19:04 | 45.69602 | 9.86897 | 3444 ft | 185 kts | 64° |
| 2026-05-06 19:04 | 45.69868 | 9.88676 | 3410 ft | 185 kts | 88° |
| 2026-05-06 19:04 | 45.69902 | 9.90492 | 3420 ft | 185 kts | 89° |
| 2026-05-06 19:05 | 45.69924 | 9.92384 | 3804 ft | 199 kts | 89° |
| 2026-05-06 19:05 | 45.69752 | 9.94432 | 4227 ft | 212 kts | 115° |
| 2026-05-06 19:05 | 45.68816 | 9.96062 | 4789 ft | 217 kts | 149° |
| 2026-05-06 19:05 | 45.67380 | 9.96686 | 5391 ft | 219 kts | 179° |
| 2026-05-06 19:06 | 45.65826 | 9.96606 | 6054 ft | 227 kts | 184° |
| 2026-05-06 19:06 | 45.64260 | 9.96458 | 6616 ft | 229 kts | 184° |
| 2026-05-06 19:06 | 45.62662 | 9.96318 | 7208 ft | 231 kts | 184° |
| 2026-05-06 19:06 | 45.61047 | 9.96178 | 7798 ft | 236 kts | 184° |
| 2026-05-06 19:07 | 45.59379 | 9.96034 | 8408 ft | 244 kts | 184° |
| 2026-05-06 19:07 | 45.58222 | 9.95935 | 8763 ft | 249 kts | 184° |
| 2026-05-06 19:07 | 45.55930 | 9.95738 | 8976 ft | 251 kts | 184° |
| 2026-05-06 19:07 | 45.54187 | 9.95590 | 8978 ft | 250 kts | 184° |
| 2026-05-06 19:08 | 45.52444 | 9.95444 | 8972 ft | 251 kts | 184° |
| 2026-05-06 19:08 | 45.50704 | 9.95297 | 8973 ft | 250 kts | 184° |
| 2026-05-06 19:08 | 45.48967 | 9.95153 | 8975 ft | 250 kts | 184° |
| 2026-05-06 19:08 | 45.47233 | 9.95010 | 8974 ft | 250 kts | 184° |
| 2026-05-06 19:09 | 45.45503 | 9.94868 | 8972 ft | 250 kts | 184° |
| 2026-05-06 19:09 | 45.43770 | 9.94727 | 8969 ft | 249 kts | 184° |
| 2026-05-06 19:09 | 45.42033 | 9.94586 | 8969 ft | 250 kts | 184° |
| 2026-05-06 19:09 | 45.40302 | 9.94446 | 8967 ft | 250 kts | 184° |
| 2026-05-06 19:10 | 45.38568 | 9.94308 | 8965 ft | 249 kts | 184° |
| 2026-05-06 19:10 | 45.36834 | 9.94171 | 8960 ft | 249 kts | 184° |
| 2026-05-06 19:10 | 45.35105 | 9.94036 | 8963 ft | 249 kts | 184° |
| 2026-05-06 19:10 | 45.33379 | 9.93901 | 8959 ft | 248 kts | 184° |
| 2026-05-06 19:11 | 45.31648 | 9.93768 | 8975 ft | 249 kts | 184° |
| 2026-05-06 19:11 | 45.29926 | 9.93495 | 8925 ft | 250 kts | 198° |
| 2026-05-06 19:11 | 45.28482 | 9.92233 | 8851 ft | 243 kts | 229° |
| 2026-05-06 19:11 | 45.27714 | 9.90109 | 8940 ft | 247 kts | 258° |
| 2026-05-06 19:12 | 45.27785 | 9.87677 | 8959 ft | 250 kts | 287° |
| 2026-05-06 19:12 | 45.28700 | 9.85581 | 8961 ft | 255 kts | 317° |
| 2026-05-06 19:12 | 45.30207 | 9.84339 | 8979 ft | 257 kts | 340° |
| 2026-05-06 19:12 | 45.31936 | 9.83613 | 8984 ft | 260 kts | 343° |
| 2026-05-06 19:13 | 45.33676 | 9.82930 | 8976 ft | 259 kts | 343° |
| 2026-05-06 19:13 | 45.35414 | 9.82246 | 8968 ft | 260 kts | 343° |
| 2026-05-06 19:13 | 45.37154 | 9.81562 | 8969 ft | 259 kts | 343° |
| 2026-05-06 19:13 | 45.38914 | 9.80984 | 8946 ft | 260 kts | 356° |
| 2026-05-06 19:14 | 45.40678 | 9.81382 | 8714 ft | 259 kts | 24° |
| 2026-05-06 19:14 | 45.42199 | 9.82767 | 8277 ft | 263 kts | 40° |
| 2026-05-06 19:14 | 45.43458 | 9.84689 | 7750 ft | 270 kts | 53° |
| 2026-05-06 19:14 | 45.44618 | 9.86830 | 7319 ft | 274 kts | 52° |
| 2026-05-06 19:15 | 45.45791 | 9.88968 | 6984 ft | 274 kts | 52° |
| 2026-05-06 19:15 | 45.46968 | 9.91097 | 6664 ft | 274 kts | 52° |
| 2026-05-06 19:15 | 45.48149 | 9.93225 | 6336 ft | 274 kts | 52° |
| 2026-05-06 19:15 | 45.49390 | 9.95276 | 5984 ft | 274 kts | 39° |
| 2026-05-06 19:16 | 45.51111 | 9.96361 | 5571 ft | 274 kts | 6° |
| 2026-05-06 19:16 | 45.52978 | 9.96284 | 5406 ft | 262 kts | 356° |
| 2026-05-06 19:16 | 45.54768 | 9.96169 | 5259 ft | 253 kts | 357° |
| 2026-05-06 19:16 | 45.56502 | 9.96074 | 5028 ft | 248 kts | 358° |
| 2026-05-06 19:17 | 45.58204 | 9.95981 | 4769 ft | 240 kts | 358° |
| 2026-05-06 19:17 | 45.59818 | 9.95897 | 4477 ft | 223 kts | 358° |
| 2026-05-06 19:17 | 45.61262 | 9.95467 | 4153 ft | 208 kts | 329° |
| 2026-05-06 19:17 | 45.62275 | 9.94053 | 3893 ft | 204 kts | 300° |
| 2026-05-06 19:18 | 45.62829 | 9.92186 | 3628 ft | 205 kts | 286° |
| 2026-05-06 19:18 | 45.63182 | 9.90216 | 3328 ft | 204 kts | 283° |
| 2026-05-06 19:18 | 45.63524 | 9.88257 | 3040 ft | 203 kts | 284° |
| 2026-05-06 19:18 | 45.63883 | 9.86311 | 2761 ft | 202 kts | 284° |
| 2026-05-06 19:19 | 45.64243 | 9.84373 | 2483 ft | 200 kts | 284° |
| 2026-05-06 19:19 | 45.64599 | 9.82459 | 2219 ft | 199 kts | 285° |
| 2026-05-06 19:19 | 45.64936 | 9.80636 | 1961 ft | 179 kts | 285° |
| 2026-05-06 19:19 | 45.65240 | 9.78999 | 1722 ft | 163 kts | 285° |
| 2026-05-06 19:20 | 45.65518 | 9.77502 | 1570 ft | 153 kts | 285° |
| 2026-05-06 19:20 | 45.65790 | 9.76047 | 1363 ft | 153 kts | 285° |
| 2026-05-06 19:20 | 45.66063 | 9.74563 | 1147 ft | 152 kts | 285° |
| 2026-05-06 19:20 | 45.66332 | 9.73123 | 932 ft | 152 kts | 285° |
| 2026-05-06 19:21 | 45.66606 | 9.71654 | 777 ft | 148 kts | 285° |
| 2026-05-06 19:21 | 45.66816 | 9.70516 | 781 ft | 74 kts | 284° |
| 2026-05-06 19:21 | 45.66898 | 9.70076 | 787 ft | 34 kts | 285° |
| 2026-05-06 19:21 | 45.66911 | 9.70007 | 787 ft | 2 kts | 285° |
| 2026-05-06 19:22 | 45.66916 | 9.69978 | 788 ft | 4 kts | 285° |
| 2026-05-06 19:22 | 45.66921 | 9.69950 | 788 ft | 5 kts | 285° |
| 2026-05-06 19:22 | 45.66936 | 9.69874 | 788 ft | 7 kts | 285° |
| 2026-05-06 19:22 | 45.66934 | 9.69822 | 788 ft | 1 kts | 216° |
| 2026-05-06 19:23 | 45.66933 | 9.69822 | 788 ft | 0 kts | 204° |
| 2026-05-06 19:23 | 45.66922 | 9.69830 | 788 ft | 6 kts | 143° |
| 2026-05-06 19:23 | 45.66895 | 9.69911 | 788 ft | 11 kts | 132° |
| 2026-05-06 19:23 | 45.66849 | 9.69906 | 787 ft | 6 kts | 220° |
| 2026-05-06 19:24 | 45.66812 | 9.69862 | 787 ft | 8 kts | 218° |
| 2026-05-06 19:24 | 45.66788 | 9.69835 | 787 ft | 0 kts | 218° |
| 2026-05-06 19:27 | 45.66782 | 9.69822 | 787 ft | 5 kts | 239° |
| 2026-05-06 19:27 | 45.66785 | 9.69755 | 787 ft | 10 kts | 286° |
| 2026-05-06 19:27 | 45.66811 | 9.69638 | 788 ft | 14 kts | 286° |
| 2026-05-06 19:28 | 45.66783 | 9.69579 | 789 ft | 8 kts | 200° |
| 2026-05-06 19:28 | 45.66761 | 9.69570 | 789 ft | 3 kts | 198° |
| 2026-05-06 19:28 | 45.66757 | 9.69568 | 789 ft | 0 kts | 199° |